African Juniper — D5CB8 — position and weather

sailwx.info

Track history (hours):
 
Tides and Currents Weather Stations Pressure Air Temp Water Temp Dewpoint Dewpoint Depression Visibility Wind Speed Wind Dir Waves Ship Positions

African Juniper

Last reported at 2018-Jan-05 05:22 UTC. Time now 2018-Jan-21 10:41 UTC.
Position N 06°20' E 003°26'.
Warning: this ship's position is 16 days out of date.

Length 140 m; draft 7.4 m.

Type: Cargo ship. MMSI: 636015658.

Date/timePositionNaut miles runAvg speedWind from/ knotsBaromVisibWave heightAir tempDewpointWater temp
2018-Jan-05 05:22N 06°20' E 003°26'22 9.4
2018-Jan-05 02:59N 05°58' E 003°31'612.3
2018-Jan-05 02:30N 05°52' E 003°32'612.6
2018-Jan-05 02:00N 05°46' E 003°32'14 8.0
2018-Jan-05 00:12N 05°43' E 003°46'2712.1
2018-Jan-04 21:59N 05°44' E 004°13'612.0
2018-Jan-04 21:30N 05°42' E 004°18'612.4
2018-Jan-04 21:00N 05°38' E 004°23'612.5
2018-Jan-04 20:30N 05°35' E 004°29'612.5
2018-Jan-04 20:00N 05°32' E 004°34'33 9.9
2018-Jan-04 16:40N 05°31' E 005°08'  
2017-Dec-28 14:35N 05°36' E 005°17'0 0.0
2017-Dec-28 14:14N 05°36' E 005°17'0 0.0
2017-Dec-28 13:26N 05°36' E 005°17'5 4.4
2017-Dec-28 12:24N 05°36' E 005°12'410.8
2017-Dec-28 12:00N 05°33' E 005°09'2 4.2
2017-Dec-28 11:30N 05°31' E 005°08'2 3.1
2017-Dec-28 11:00N 05°30' E 005°06'1 1.1
2017-Dec-28 10:30N 05°31' E 005°06'1 2.1
2017-Dec-28 10:00N 05°30' E 005°05'4810.0
2017-Dec-28 05:15N 04°55' E 004°32'11 9.7
2017-Dec-28 04:08N 04°47' E 004°25'211.7
2017-Dec-28 03:59N 04°46' E 004°24'1010.7
2017-Dec-28 03:02N 04°46' E 004°14'011.6
2017-Dec-28 03:00N 04°46' E 004°14'611.5
2017-Dec-28 02:30N 04°46' E 004°08'611.4
2017-Dec-28 02:00N 04°46' E 004°02'5 9.7
2017-Dec-28 01:30N 04°49' E 003°58'611.7
2017-Dec-28 01:00N 04°54' E 003°56'611.7
2017-Dec-28 00:30N 04°60' E 003°54'611.6
2017-Dec-28 00:00N 05°05' E 003°52'611.5
2017-Dec-27 23:30N 05°10' E 003°50'611.4
2017-Dec-27 23:00N 05°16' E 003°48'2111.6
2017-Dec-27 21:14N 05°35' E 003°41'311.6
2017-Dec-27 20:57N 05°38' E 003°40'511.6
2017-Dec-27 20:30N 05°43' E 003°38'611.5
2017-Dec-27 19:58N 05°49' E 003°35'511.4
2017-Dec-27 19:30N 05°53' E 003°33'1911.6
2017-Dec-27 17:51N 06°11' E 003°26'411.8
2017-Dec-27 17:30N 06°15' E 003°25'510.7
2017-Dec-27 17:00N 06°20' E 003°25'0 0.7
2017-Dec-27 16:30N 06°20' E 003°25'0 0.2
2017-Dec-27 16:00N 06°20' E 003°25'0 0.6
2017-Dec-27 15:30N 06°20' E 003°25'0 0.5
2017-Dec-27 15:00N 06°20' E 003°25'181 6.9
2017-Dec-26 13:00N 04°43' E 000°52'612.7
2017-Dec-26 12:30N 04°48' E 000°48'712.7
2017-Dec-26 11:56N 04°54' E 000°44'2812.6
2017-Dec-26 09:44N 05°15' E 000°27'313.0
2017-Dec-26 09:30N 05°17' E 000°25'612.9
2017-Dec-26 09:00N 05°21' E 000°19'612.5
2017-Dec-26 08:30N 05°25' E 000°15'612.5
2017-Dec-26 08:00N 05°29' E 000°10'611.9
2017-Dec-26 07:30N 05°34' E 000°06'611.4
2017-Dec-26 07:00N 05°38' E 000°02'1 2.6
2017-Dec-26 06:30N 05°38' E 000°01'0 0.0
2017-Dec-26 06:00N 05°38' E 000°01'0 0.0
2017-Dec-26 05:30N 05°38' E 000°01'  
Track history (hours):
 
Tides and Currents Weather Stations Pressure Air Temp Water Temp Dewpoint Dewpoint Depression Visibility Wind Speed Wind Dir Waves Ship Positions

African Juniper

Last reported at 2018-Jan-05 05:22 UTC. Time now 2018-Jan-21 10:41 UTC.
Position N 06°20' E 003°26'.
Warning: this ship's position is 16 days out of date.

Length 140 m; draft 7.4 m.

Type: Cargo ship. MMSI: 636015658.

Date/timePositionNaut miles runAvg speedWind from/ knotsBaromVisibWave heightAir tempDewpointWater temp
2018-Jan-05 05:22N 06°20' E 003°26'22 9.4
2018-Jan-05 02:59N 05°58' E 003°31'612.3
2018-Jan-05 02:30N 05°52' E 003°32'612.6
2018-Jan-05 02:00N 05°46' E 003°32'14 8.0
2018-Jan-05 00:12N 05°43' E 003°46'2712.1
2018-Jan-04 21:59N 05°44' E 004°13'612.0
2018-Jan-04 21:30N 05°42' E 004°18'612.4
2018-Jan-04 21:00N 05°38' E 004°23'612.5
2018-Jan-04 20:30N 05°35' E 004°29'612.5
2018-Jan-04 20:00N 05°32' E 004°34'33 9.9
2018-Jan-04 16:40N 05°31' E 005°08'  
2017-Dec-28 14:35N 05°36' E 005°17'0 0.0
2017-Dec-28 14:14N 05°36' E 005°17'0 0.0
2017-Dec-28 13:26N 05°36' E 005°17'5 4.4
2017-Dec-28 12:24N 05°36' E 005°12'410.8
2017-Dec-28 12:00N 05°33' E 005°09'2 4.2
2017-Dec-28 11:30N 05°31' E 005°08'2 3.1
2017-Dec-28 11:00N 05°30' E 005°06'1 1.1
2017-Dec-28 10:30N 05°31' E 005°06'1 2.1
2017-Dec-28 10:00N 05°30' E 005°05'4810.0
2017-Dec-28 05:15N 04°55' E 004°32'11 9.7
2017-Dec-28 04:08N 04°47' E 004°25'211.7
2017-Dec-28 03:59N 04°46' E 004°24'1010.7
2017-Dec-28 03:02N 04°46' E 004°14'011.6
2017-Dec-28 03:00N 04°46' E 004°14'611.5
2017-Dec-28 02:30N 04°46' E 004°08'611.4
2017-Dec-28 02:00N 04°46' E 004°02'5 9.7
2017-Dec-28 01:30N 04°49' E 003°58'611.7
2017-Dec-28 01:00N 04°54' E 003°56'611.7
2017-Dec-28 00:30N 04°60' E 003°54'611.6
2017-Dec-28 00:00N 05°05' E 003°52'611.5
2017-Dec-27 23:30N 05°10' E 003°50'611.4
2017-Dec-27 23:00N 05°16' E 003°48'2111.6
2017-Dec-27 21:14N 05°35' E 003°41'311.6
2017-Dec-27 20:57N 05°38' E 003°40'511.6
2017-Dec-27 20:30N 05°43' E 003°38'611.5
2017-Dec-27 19:58N 05°49' E 003°35'511.4
2017-Dec-27 19:30N 05°53' E 003°33'1911.6
2017-Dec-27 17:51N 06°11' E 003°26'411.8
2017-Dec-27 17:30N 06°15' E 003°25'510.7
2017-Dec-27 17:00N 06°20' E 003°25'0 0.7
2017-Dec-27 16:30N 06°20' E 003°25'0 0.2
2017-Dec-27 16:00N 06°20' E 003°25'0 0.6
2017-Dec-27 15:30N 06°20' E 003°25'0 0.5
2017-Dec-27 15:00N 06°20' E 003°25'181 6.9
2017-Dec-26 13:00N 04°43' E 000°52'612.7
2017-Dec-26 12:30N 04°48' E 000°48'712.7
2017-Dec-26 11:56N 04°54' E 000°44'2812.6
2017-Dec-26 09:44N 05°15' E 000°27'313.0
2017-Dec-26 09:30N 05°17' E 000°25'612.9
2017-Dec-26 09:00N 05°21' E 000°19'612.5
2017-Dec-26 08:30N 05°25' E 000°15'612.5
2017-Dec-26 08:00N 05°29' E 000°10'611.9
2017-Dec-26 07:30N 05°34' E 000°06'611.4
2017-Dec-26 07:00N 05°38' E 000°02'1 2.6
2017-Dec-26 06:30N 05°38' E 000°01'0 0.0
2017-Dec-26 06:00N 05°38' E 000°01'0 0.0
2017-Dec-26 05:30N 05°38' E 000°01'  

Dump ship's entire track history